sensor_id;sensor_type;location;lat;lon;timestamp;temperature;humidity
8715;DHT22;4394;51.208;8.904;2022-08-04T00:00:24;24.30;99.90
8715;DHT22;4394;51.208;8.904;2022-08-04T00:03:18;24.20;99.90
8715;DHT22;4394;51.208;8.904;2022-08-04T00:06:13;24.30;99.90
8715;DHT22;4394;51.208;8.904;2022-08-04T00:09:07;24.20;99.90
8715;DHT22;4394;51.208;8.904;2022-08-04T00:12:00;24.20;99.90
8715;DHT22;4394;51.208;8.904;2022-08-04T00:14:57;24.20;99.90
8715;DHT22;4394;51.208;8.904;2022-08-04T00:17:54;24.10;99.90
8715;DHT22;4394;51.208;8.904;2022-08-04T00:20:45;24.00;99.90
8715;DHT22;4394;51.208;8.904;2022-08-04T00:23:34;24.00;99.90
8715;DHT22;4394;51.208;8.904;2022-08-04T00:26:43;24.00;99.90
8715;DHT22;4394;51.208;8.904;2022-08-04T00:29:32;23.90;99.90
8715;DHT22;4394;51.208;8.904;2022-08-04T00:32:21;23.90;99.90
8715;DHT22;4394;51.208;8.904;2022-08-04T00:35:22;23.90;99.90
8715;DHT22;4394;51.208;8.904;2022-08-04T00:38:11;23.90;99.90
8715;DHT22;4394;51.208;8.904;2022-08-04T00:41:20;23.80;99.90
8715;DHT22;4394;51.208;8.904;2022-08-04T00:44:20;23.70;99.90
8715;DHT22;4394;51.208;8.904;2022-08-04T00:47:28;23.70;99.90
8715;DHT22;4394;51.208;8.904;2022-08-04T00:50:29;23.70;99.90
8715;DHT22;4394;51.208;8.904;2022-08-04T00:53:29;23.70;99.90
8715;DHT22;4394;51.208;8.904;2022-08-04T00:59:49;23.70;99.90
8715;DHT22;4394;51.208;8.904;2022-08-04T01:02:50;23.70;99.90
8715;DHT22;4394;51.208;8.904;2022-08-04T01:05:51;23.60;99.90
8715;DHT22;4394;51.208;8.904;2022-08-04T01:09:00;23.60;99.90
8715;DHT22;4394;51.208;8.904;2022-08-04T01:12:02;23.60;99.90
8715;DHT22;4394;51.208;8.904;2022-08-04T01:15:02;23.50;99.90
8715;DHT22;4394;51.208;8.904;2022-08-04T01:18:03;23.60;99.90
8715;DHT22;4394;51.208;8.904;2022-08-04T01:21:05;23.40;99.90
8715;DHT22;4394;51.208;8.904;2022-08-04T01:24:09;23.30;99.90
8715;DHT22;4394;51.208;8.904;2022-08-04T01:27:03;23.30;99.90
8715;DHT22;4394;51.208;8.904;2022-08-04T01:29:58;23.30;99.90
8715;DHT22;4394;51.208;8.904;2022-08-04T01:32:51;23.40;99.90
8715;DHT22;4394;51.208;8.904;2022-08-04T01:35:46;23.30;99.90
8715;DHT22;4394;51.208;8.904;2022-08-04T01:38:36;23.20;99.90
8715;DHT22;4394;51.208;8.904;2022-08-04T01:41:25;23.20;99.90
8715;DHT22;4394;51.208;8.904;2022-08-04T01:44:19;23.20;99.90
8715;DHT22;4394;51.208;8.904;2022-08-04T01:47:10;23.10;99.90
8715;DHT22;4394;51.208;8.904;2022-08-04T01:50:05;23.10;99.90
8715;DHT22;4394;51.208;8.904;2022-08-04T01:52:54;23.10;99.90
8715;DHT22;4394;51.208;8.904;2022-08-04T01:55:43;23.10;99.90
8715;DHT22;4394;51.208;8.904;2022-08-04T01:58:40;23.10;99.90
8715;DHT22;4394;51.208;8.904;2022-08-04T02:01:29;23.00;99.90
8715;DHT22;4394;51.208;8.904;2022-08-04T02:04:24;23.10;99.90
8715;DHT22;4394;51.208;8.904;2022-08-04T02:07:23;23.10;99.90
8715;DHT22;4394;51.208;8.904;2022-08-04T02:10:26;23.10;99.90
8715;DHT22;4394;51.208;8.904;2022-08-04T02:13:20;23.10;99.90
8715;DHT22;4394;51.208;8.904;2022-08-04T02:16:15;23.00;99.90
8715;DHT22;4394;51.208;8.904;2022-08-04T02:19:14;22.90;99.90
8715;DHT22;4394;51.208;8.904;2022-08-04T02:22:08;22.90;99.90
8715;DHT22;4394;51.208;8.904;2022-08-04T02:25:04;22.80;99.90
8715;DHT22;4394;51.208;8.904;2022-08-04T02:28:21;22.70;99.90
8715;DHT22;4394;51.208;8.904;2022-08-04T02:31:15;22.60;99.90
8715;DHT22;4394;51.208;8.904;2022-08-04T02:34:07;22.50;99.90
8715;DHT22;4394;51.208;8.904;2022-08-04T02:36:58;22.40;99.90
8715;DHT22;4394;51.208;8.904;2022-08-04T02:39:52;22.40;99.90
8715;DHT22;4394;51.208;8.904;2022-08-04T02:42:40;22.30;99.90
8715;DHT22;4394;51.208;8.904;2022-08-04T02:45:30;22.30;99.90
8715;DHT22;4394;51.208;8.904;2022-08-04T02:48:23;22.20;99.90
8715;DHT22;4394;51.208;8.904;2022-08-04T02:51:21;22.20;99.90
8715;DHT22;4394;51.208;8.904;2022-08-04T02:54:10;22.10;99.90
8715;DHT22;4394;51.208;8.904;2022-08-04T02:57:01;22.10;99.90
8715;DHT22;4394;51.208;8.904;2022-08-04T03:00:04;22.10;99.90
8715;DHT22;4394;51.208;8.904;2022-08-04T03:03:01;22.10;99.90
8715;DHT22;4394;51.208;8.904;2022-08-04T03:06:11;22.00;99.90
8715;DHT22;4394;51.208;8.904;2022-08-04T03:09:45;21.90;99.90
8715;DHT22;4394;51.208;8.904;2022-08-04T03:13:22;21.90;99.90
8715;DHT22;4394;51.208;8.904;2022-08-04T03:16:34;21.90;99.90
8715;DHT22;4394;51.208;8.904;2022-08-04T03:19:49;21.80;99.90
8715;DHT22;4394;51.208;8.904;2022-08-04T03:23:19;21.80;99.90
8715;DHT22;4394;51.208;8.904;2022-08-04T03:26:38;21.80;99.90
8715;DHT22;4394;51.208;8.904;2022-08-04T03:33:23;21.60;99.90
8715;DHT22;4394;51.208;8.904;2022-08-04T03:43:39;21.60;99.90
8715;DHT22;4394;51.208;8.904;2022-08-04T03:47:33;21.60;99.90
8715;DHT22;4394;51.208;8.904;2022-08-04T03:50:57;21.50;99.90
8715;DHT22;4394;51.208;8.904;2022-08-04T03:55:02;21.50;99.90
8715;DHT22;4394;51.208;8.904;2022-08-04T03:58:12;21.50;99.90
8715;DHT22;4394;51.208;8.904;2022-08-04T04:01:32;21.50;99.90
8715;DHT22;4394;51.208;8.904;2022-08-04T04:04:56;21.50;99.90
8715;DHT22;4394;51.208;8.904;2022-08-04T04:08:02;21.50;99.90
8715;DHT22;4394;51.208;8.904;2022-08-04T04:11:28;21.50;99.90
8715;DHT22;4394;51.208;8.904;2022-08-04T04:14:30;21.60;99.90
8715;DHT22;4394;51.208;8.904;2022-08-04T04:21:07;21.50;99.90
8715;DHT22;4394;51.208;8.904;2022-08-04T04:24:17;21.50;99.90
8715;DHT22;4394;51.208;8.904;2022-08-04T04:27:17;21.50;99.90
8715;DHT22;4394;51.208;8.904;2022-08-04T04:30:12;21.50;99.90
8715;DHT22;4394;51.208;8.904;2022-08-04T04:33:18;21.40;99.90
8715;DHT22;4394;51.208;8.904;2022-08-04T04:36:13;21.40;99.90
8715;DHT22;4394;51.208;8.904;2022-08-04T04:39:12;21.30;99.90
8715;DHT22;4394;51.208;8.904;2022-08-04T04:42:26;21.30;99.90
8715;DHT22;4394;51.208;8.904;2022-08-04T04:45:23;21.30;99.90
8715;DHT22;4394;51.208;8.904;2022-08-04T04:48:21;21.30;99.90
8715;DHT22;4394;51.208;8.904;2022-08-04T04:51:22;21.30;99.90
8715;DHT22;4394;51.208;8.904;2022-08-04T04:54:21;21.30;99.90
8715;DHT22;4394;51.208;8.904;2022-08-04T04:57:13;21.40;99.90
8715;DHT22;4394;51.208;8.904;2022-08-04T05:00:04;21.40;99.90
8715;DHT22;4394;51.208;8.904;2022-08-04T05:03:04;21.50;99.90
8715;DHT22;4394;51.208;8.904;2022-08-04T05:06:09;21.50;99.90
8715;DHT22;4394;51.208;8.904;2022-08-04T05:09:21;21.50;99.90
8715;DHT22;4394;51.208;8.904;2022-08-04T05:12:49;21.50;99.90
8715;DHT22;4394;51.208;8.904;2022-08-04T05:16:06;21.60;99.90
8715;DHT22;4394;51.208;8.904;2022-08-04T05:19:05;21.60;99.90
8715;DHT22;4394;51.208;8.904;2022-08-04T05:22:00;21.70;99.90
8715;DHT22;4394;51.208;8.904;2022-08-04T05:24:56;21.70;99.90
8715;DHT22;4394;51.208;8.904;2022-08-04T05:27:50;21.70;99.90
8715;DHT22;4394;51.208;8.904;2022-08-04T05:30:45;21.80;99.90
8715;DHT22;4394;51.208;8.904;2022-08-04T05:33:39;21.80;99.90
8715;DHT22;4394;51.208;8.904;2022-08-04T05:36:33;21.80;99.90
8715;DHT22;4394;51.208;8.904;2022-08-04T05:39:32;21.90;99.90
8715;DHT22;4394;51.208;8.904;2022-08-04T05:42:25;21.90;99.90
8715;DHT22;4394;51.208;8.904;2022-08-04T05:45:14;22.00;99.90
8715;DHT22;4394;51.208;8.904;2022-08-04T05:48:04;22.00;99.90
8715;DHT22;4394;51.208;8.904;2022-08-04T05:50:53;22.10;99.90
8715;DHT22;4394;51.208;8.904;2022-08-04T05:53:47;22.20;99.90
8715;DHT22;4394;51.208;8.904;2022-08-04T05:56:36;22.20;99.90
8715;DHT22;4394;51.208;8.904;2022-08-04T05:59:28;22.20;99.90
8715;DHT22;4394;51.208;8.904;2022-08-04T06:02:17;22.20;99.90
8715;DHT22;4394;51.208;8.904;2022-08-04T06:05:07;22.20;99.90
8715;DHT22;4394;51.208;8.904;2022-08-04T06:07:56;22.20;99.90
8715;DHT22;4394;51.208;8.904;2022-08-04T06:11:03;22.30;99.90
8715;DHT22;4394;51.208;8.904;2022-08-04T06:13:55;22.40;99.90
8715;DHT22;4394;51.208;8.904;2022-08-04T06:16:45;22.40;99.90
8715;DHT22;4394;51.208;8.904;2022-08-04T06:19:39;22.40;99.90
8715;DHT22;4394;51.208;8.904;2022-08-04T06:22:51;22.60;99.90
8715;DHT22;4394;51.208;8.904;2022-08-04T06:25:43;22.70;99.90
8715;DHT22;4394;51.208;8.904;2022-08-04T06:28:32;22.70;99.90
8715;DHT22;4394;51.208;8.904;2022-08-04T06:31:22;22.90;99.90
8715;DHT22;4394;51.208;8.904;2022-08-04T06:34:51;22.90;99.90
8715;DHT22;4394;51.208;8.904;2022-08-04T06:37:40;23.00;99.90
8715;DHT22;4394;51.208;8.904;2022-08-04T06:40:30;23.10;99.90
8715;DHT22;4394;51.208;8.904;2022-08-04T06:43:21;23.20;99.90
8715;DHT22;4394;51.208;8.904;2022-08-04T06:46:13;23.20;99.90
8715;DHT22;4394;51.208;8.904;2022-08-04T06:49:01;23.30;99.90
8715;DHT22;4394;51.208;8.904;2022-08-04T06:51:53;23.40;99.90
8715;DHT22;4394;51.208;8.904;2022-08-04T06:54:42;23.50;99.90
8715;DHT22;4394;51.208;8.904;2022-08-04T06:57:35;23.60;99.90
8715;DHT22;4394;51.208;8.904;2022-08-04T07:00:25;23.70;99.90
8715;DHT22;4394;51.208;8.904;2022-08-04T07:03:16;23.80;99.90
8715;DHT22;4394;51.208;8.904;2022-08-04T07:06:05;23.90;99.90
8715;DHT22;4394;51.208;8.904;2022-08-04T07:09:02;23.90;99.90
8715;DHT22;4394;51.208;8.904;2022-08-04T07:11:51;24.00;99.90
8715;DHT22;4394;51.208;8.904;2022-08-04T07:14:40;24.10;99.90
8715;DHT22;4394;51.208;8.904;2022-08-04T07:17:30;24.20;99.90
8715;DHT22;4394;51.208;8.904;2022-08-04T07:20:20;24.30;99.90
8715;DHT22;4394;51.208;8.904;2022-08-04T07:23:23;24.40;99.90
8715;DHT22;4394;51.208;8.904;2022-08-04T07:26:12;24.50;99.90
8715;DHT22;4394;51.208;8.904;2022-08-04T07:29:01;24.50;99.90
8715;DHT22;4394;51.208;8.904;2022-08-04T07:31:50;24.70;99.90
8715;DHT22;4394;51.208;8.904;2022-08-04T07:34:39;24.80;99.90
8715;DHT22;4394;51.208;8.904;2022-08-04T07:37:35;24.90;99.90
8715;DHT22;4394;51.208;8.904;2022-08-04T07:40:25;25.00;99.90
8715;DHT22;4394;51.208;8.904;2022-08-04T07:43:15;25.10;99.90
8715;DHT22;4394;51.208;8.904;2022-08-04T07:46:04;25.20;99.90
8715;DHT22;4394;51.208;8.904;2022-08-04T07:48:52;25.30;99.90
8715;DHT22;4394;51.208;8.904;2022-08-04T07:51:40;25.40;99.90
8715;DHT22;4394;51.208;8.904;2022-08-04T07:54:29;25.50;99.90
8715;DHT22;4394;51.208;8.904;2022-08-04T07:57:17;25.60;99.90
8715;DHT22;4394;51.208;8.904;2022-08-04T08:00:27;25.80;99.90
8715;DHT22;4394;51.208;8.904;2022-08-04T08:03:16;25.90;99.90
8715;DHT22;4394;51.208;8.904;2022-08-04T08:06:08;26.00;99.90
8715;DHT22;4394;51.208;8.904;2022-08-04T08:09:18;26.10;99.90
8715;DHT22;4394;51.208;8.904;2022-08-04T08:12:07;26.20;99.90
8715;DHT22;4394;51.208;8.904;2022-08-04T08:15:18;26.30;99.90
8715;DHT22;4394;51.208;8.904;2022-08-04T08:18:08;26.40;99.80
8715;DHT22;4394;51.208;8.904;2022-08-04T08:20:57;26.50;99.60
8715;DHT22;4394;51.208;8.904;2022-08-04T08:23:46;26.60;99.90
8715;DHT22;4394;51.208;8.904;2022-08-04T08:26:35;26.60;99.40
8715;DHT22;4394;51.208;8.904;2022-08-04T08:29:25;26.80;99.90
8715;DHT22;4394;51.208;8.904;2022-08-04T08:32:13;26.80;99.70
8715;DHT22;4394;51.208;8.904;2022-08-04T08:35:03;26.90;99.90
8715;DHT22;4394;51.208;8.904;2022-08-04T08:37:56;27.00;99.90
8715;DHT22;4394;51.208;8.904;2022-08-04T08:40:49;27.10;99.80
8715;DHT22;4394;51.208;8.904;2022-08-04T08:43:53;27.20;99.90
8715;DHT22;4394;51.208;8.904;2022-08-04T08:47:03;27.30;99.90
8715;DHT22;4394;51.208;8.904;2022-08-04T08:50:15;27.40;99.90
8715;DHT22;4394;51.208;8.904;2022-08-04T08:53:22;27.50;99.90
8715;DHT22;4394;51.208;8.904;2022-08-04T08:56:27;27.60;99.20
8715;DHT22;4394;51.208;8.904;2022-08-04T08:59:38;27.80;99.90
8715;DHT22;4394;51.208;8.904;2022-08-04T09:02:49;27.90;99.60
8715;DHT22;4394;51.208;8.904;2022-08-04T09:06:00;28.00;99.10
8715;DHT22;4394;51.208;8.904;2022-08-04T09:09:03;28.10;99.00
8715;DHT22;4394;51.208;8.904;2022-08-04T09:11:57;28.20;99.10
8715;DHT22;4394;51.208;8.904;2022-08-04T09:14:52;28.30;99.50
8715;DHT22;4394;51.208;8.904;2022-08-04T09:17:46;28.50;99.50
8715;DHT22;4394;51.208;8.904;2022-08-04T09:20:39;28.60;99.60
8715;DHT22;4394;51.208;8.904;2022-08-04T09:23:39;28.70;98.70
8715;DHT22;4394;51.208;8.904;2022-08-04T09:26:37;28.80;98.30
8715;DHT22;4394;51.208;8.904;2022-08-04T09:29:35;28.90;98.90
8715;DHT22;4394;51.208;8.904;2022-08-04T09:32:31;29.00;98.30
8715;DHT22;4394;51.208;8.904;2022-08-04T09:35:29;29.20;97.80
8715;DHT22;4394;51.208;8.904;2022-08-04T09:38:22;29.30;97.70
8715;DHT22;4394;51.208;8.904;2022-08-04T09:41:31;29.40;97.40
8715;DHT22;4394;51.208;8.904;2022-08-04T09:44:42;29.60;97.40
8715;DHT22;4394;51.208;8.904;2022-08-04T09:47:46;29.70;97.20
8715;DHT22;4394;51.208;8.904;2022-08-04T09:50:37;29.80;96.70
8715;DHT22;4394;51.208;8.904;2022-08-04T09:53:37;30.00;96.80
8715;DHT22;4394;51.208;8.904;2022-08-04T09:56:37;30.10;96.20
8715;DHT22;4394;51.208;8.904;2022-08-04T09:59:29;30.20;96.10
8715;DHT22;4394;51.208;8.904;2022-08-04T10:02:22;30.30;95.50
8715;DHT22;4394;51.208;8.904;2022-08-04T10:05:13;30.40;95.10
8715;DHT22;4394;51.208;8.904;2022-08-04T10:08:15;30.50;94.70
8715;DHT22;4394;51.208;8.904;2022-08-04T10:11:11;30.70;93.70
8715;DHT22;4394;51.208;8.904;2022-08-04T10:14:08;30.80;93.30
8715;DHT22;4394;51.208;8.904;2022-08-04T10:17:11;30.90;92.00
8715;DHT22;4394;51.208;8.904;2022-08-04T10:20:08;31.00;91.00
8715;DHT22;4394;51.208;8.904;2022-08-04T10:23:09;31.10;90.90
8715;DHT22;4394;51.208;8.904;2022-08-04T10:26:13;31.20;89.60
8715;DHT22;4394;51.208;8.904;2022-08-04T10:29:10;31.40;86.00
8715;DHT22;4394;51.208;8.904;2022-08-04T10:32:03;31.50;84.00
8715;DHT22;4394;51.208;8.904;2022-08-04T10:35:06;31.50;82.30
8715;DHT22;4394;51.208;8.904;2022-08-04T10:38:05;31.70;80.70
8715;DHT22;4394;51.208;8.904;2022-08-04T10:41:00;31.80;78.30
8715;DHT22;4394;51.208;8.904;2022-08-04T10:44:00;31.90;78.90
8715;DHT22;4394;51.208;8.904;2022-08-04T10:46:57;32.00;76.00
8715;DHT22;4394;51.208;8.904;2022-08-04T10:49:53;32.20;77.00
8715;DHT22;4394;51.208;8.904;2022-08-04T10:52:44;32.30;75.50
8715;DHT22;4394;51.208;8.904;2022-08-04T10:55:37;32.50;73.00
8715;DHT22;4394;51.208;8.904;2022-08-04T10:58:52;32.60;71.80
8715;DHT22;4394;51.208;8.904;2022-08-04T11:01:44;32.60;70.50
8715;DHT22;4394;51.208;8.904;2022-08-04T11:04:57;32.70;68.90
8715;DHT22;4394;51.208;8.904;2022-08-04T11:07:50;32.90;69.00
8715;DHT22;4394;51.208;8.904;2022-08-04T11:10:44;33.00;66.80
8715;DHT22;4394;51.208;8.904;2022-08-04T11:13:39;33.20;64.80
8715;DHT22;4394;51.208;8.904;2022-08-04T11:16:38;33.40;64.20
8715;DHT22;4394;51.208;8.904;2022-08-04T11:19:32;33.50;62.40
8715;DHT22;4394;51.208;8.904;2022-08-04T11:22:38;33.50;60.60
8715;DHT22;4394;51.208;8.904;2022-08-04T11:25:32;33.60;58.70
8715;DHT22;4394;51.208;8.904;2022-08-04T11:28:32;33.70;59.80
8715;DHT22;4394;51.208;8.904;2022-08-04T11:31:26;33.90;59.70
8715;DHT22;4394;51.208;8.904;2022-08-04T11:34:18;34.00;60.70
8715;DHT22;4394;51.208;8.904;2022-08-04T11:37:10;34.20;59.40
8715;DHT22;4394;51.208;8.904;2022-08-04T11:40:06;34.40;58.90
8715;DHT22;4394;51.208;8.904;2022-08-04T11:43:00;34.50;58.00
8715;DHT22;4394;51.208;8.904;2022-08-04T11:45:53;34.70;58.00
8715;DHT22;4394;51.208;8.904;2022-08-04T11:48:50;34.90;56.00
8715;DHT22;4394;51.208;8.904;2022-08-04T11:51:40;35.00;56.20
8715;DHT22;4394;51.208;8.904;2022-08-04T11:54:32;35.10;53.90
8715;DHT22;4394;51.208;8.904;2022-08-04T11:57:23;35.20;52.70
8715;DHT22;4394;51.208;8.904;2022-08-04T12:00:24;35.20;51.20
8715;DHT22;4394;51.208;8.904;2022-08-04T12:03:23;35.20;51.30
8715;DHT22;4394;51.208;8.904;2022-08-04T12:06:19;35.30;51.90
8715;DHT22;4394;51.208;8.904;2022-08-04T12:09:11;35.40;51.90
8715;DHT22;4394;51.208;8.904;2022-08-04T12:12:08;35.50;50.90
8715;DHT22;4394;51.208;8.904;2022-08-04T12:15:11;35.70;50.50
8715;DHT22;4394;51.208;8.904;2022-08-04T12:18:07;35.80;50.00
8715;DHT22;4394;51.208;8.904;2022-08-04T12:20:59;35.90;49.40
8715;DHT22;4394;51.208;8.904;2022-08-04T12:23:52;36.10;50.20
8715;DHT22;4394;51.208;8.904;2022-08-04T12:26:51;36.10;48.60
8715;DHT22;4394;51.208;8.904;2022-08-04T12:29:41;35.70;47.40
8715;DHT22;4394;51.208;8.904;2022-08-04T12:32:54;35.30;47.80
8715;DHT22;4394;51.208;8.904;2022-08-04T12:35:50;34.90;46.00
8715;DHT22;4394;51.208;8.904;2022-08-04T12:39:00;34.70;47.50
8715;DHT22;4394;51.208;8.904;2022-08-04T12:41:57;34.80;47.50
8715;DHT22;4394;51.208;8.904;2022-08-04T12:44:47;35.10;49.10
8715;DHT22;4394;51.208;8.904;2022-08-04T12:47:40;35.50;49.90
8715;DHT22;4394;51.208;8.904;2022-08-04T12:50:32;35.80;49.70
8715;DHT22;4394;51.208;8.904;2022-08-04T12:53:26;36.10;48.00
8715;DHT22;4394;51.208;8.904;2022-08-04T12:56:25;36.50;47.60
8715;DHT22;4394;51.208;8.904;2022-08-04T12:59:14;36.70;46.80
8715;DHT22;4394;51.208;8.904;2022-08-04T13:02:04;36.90;47.10
8715;DHT22;4394;51.208;8.904;2022-08-04T13:05:02;36.90;46.40
8715;DHT22;4394;51.208;8.904;2022-08-04T13:07:53;36.90;47.00
8715;DHT22;4394;51.208;8.904;2022-08-04T13:10:45;37.00;47.20
8715;DHT22;4394;51.208;8.904;2022-08-04T13:13:35;37.20;47.00
8715;DHT22;4394;51.208;8.904;2022-08-04T13:16:31;37.30;46.60
8715;DHT22;4394;51.208;8.904;2022-08-04T13:19:20;37.30;43.80
8715;DHT22;4394;51.208;8.904;2022-08-04T13:22:08;37.20;43.50
8715;DHT22;4394;51.208;8.904;2022-08-04T13:24:59;36.70;42.90
8715;DHT22;4394;51.208;8.904;2022-08-04T13:28:12;36.70;43.50
8715;DHT22;4394;51.208;8.904;2022-08-04T13:31:05;36.80;44.20
8715;DHT22;4394;51.208;8.904;2022-08-04T13:34:02;36.50;42.30
8715;DHT22;4394;51.208;8.904;2022-08-04T13:37:06;36.00;42.50
8715;DHT22;4394;51.208;8.904;2022-08-04T13:39:56;35.70;44.30
8715;DHT22;4394;51.208;8.904;2022-08-04T13:42:48;35.70;45.00
8715;DHT22;4394;51.208;8.904;2022-08-04T13:45:40;35.70;44.70
8715;DHT22;4394;51.208;8.904;2022-08-04T13:48:32;35.70;46.10
8715;DHT22;4394;51.208;8.904;2022-08-04T13:51:22;35.90;44.10
8715;DHT22;4394;51.208;8.904;2022-08-04T13:54:37;35.80;44.00
8715;DHT22;4394;51.208;8.904;2022-08-04T13:57:30;35.70;43.10
8715;DHT22;4394;51.208;8.904;2022-08-04T14:00:21;35.60;43.70
8715;DHT22;4394;51.208;8.904;2022-08-04T14:03:23;35.50;45.10
8715;DHT22;4394;51.208;8.904;2022-08-04T14:06:15;35.60;46.10
8715;DHT22;4394;51.208;8.904;2022-08-04T14:09:11;35.70;45.30
8715;DHT22;4394;51.208;8.904;2022-08-04T14:12:07;35.70;45.40
8715;DHT22;4394;51.208;8.904;2022-08-04T14:15:35;35.70;46.50
8715;DHT22;4394;51.208;8.904;2022-08-04T14:18:44;36.50;46.20
8715;DHT22;4394;51.208;8.904;2022-08-04T14:21:35;36.60;44.60
8715;DHT22;4394;51.208;8.904;2022-08-04T14:24:25;36.70;43.20
8715;DHT22;4394;51.208;8.904;2022-08-04T14:27:13;36.90;43.30
8715;DHT22;4394;51.208;8.904;2022-08-04T14:30:02;36.70;43.60
8715;DHT22;4394;51.208;8.904;2022-08-04T14:32:58;36.60;43.40
8715;DHT22;4394;51.208;8.904;2022-08-04T14:36:08;36.20;40.60
8715;DHT22;4394;51.208;8.904;2022-08-04T14:39:01;35.80;41.00
8715;DHT22;4394;51.208;8.904;2022-08-04T14:41:50;35.70;41.40
8715;DHT22;4394;51.208;8.904;2022-08-04T14:44:52;35.50;42.20
8715;DHT22;4394;51.208;8.904;2022-08-04T14:47:42;35.50;43.10
8715;DHT22;4394;51.208;8.904;2022-08-04T14:50:42;35.40;42.20
8715;DHT22;4394;51.208;8.904;2022-08-04T14:53:30;35.40;42.00
8715;DHT22;4394;51.208;8.904;2022-08-04T14:56:19;35.20;39.70
8715;DHT22;4394;51.208;8.904;2022-08-04T14:59:39;34.90;40.50
8715;DHT22;4394;51.208;8.904;2022-08-04T15:02:45;34.80;39.80
8715;DHT22;4394;51.208;8.904;2022-08-04T15:05:34;34.80;40.40
8715;DHT22;4394;51.208;8.904;2022-08-04T15:08:44;34.80;40.90
8715;DHT22;4394;51.208;8.904;2022-08-04T15:11:34;34.70;40.20
8715;DHT22;4394;51.208;8.904;2022-08-04T15:14:29;34.80;40.50
8715;DHT22;4394;51.208;8.904;2022-08-04T15:17:23;34.80;40.80
8715;DHT22;4394;51.208;8.904;2022-08-04T15:20:16;34.90;41.90
8715;DHT22;4394;51.208;8.904;2022-08-04T15:23:05;35.10;42.40
8715;DHT22;4394;51.208;8.904;2022-08-04T15:26:01;35.50;43.00
8715;DHT22;4394;51.208;8.904;2022-08-04T15:28:53;35.70;42.10
8715;DHT22;4394;51.208;8.904;2022-08-04T15:31:43;35.40;41.00
8715;DHT22;4394;51.208;8.904;2022-08-04T15:35:00;35.30;41.70
8715;DHT22;4394;51.208;8.904;2022-08-04T15:37:57;35.10;41.60
8715;DHT22;4394;51.208;8.904;2022-08-04T15:40:51;34.80;40.40
8715;DHT22;4394;51.208;8.904;2022-08-04T15:43:52;34.60;40.50
8715;DHT22;4394;51.208;8.904;2022-08-04T15:47:11;34.40;40.50
8715;DHT22;4394;51.208;8.904;2022-08-04T15:50:05;34.30;41.20
8715;DHT22;4394;51.208;8.904;2022-08-04T15:53:01;34.10;41.50
8715;DHT22;4394;51.208;8.904;2022-08-04T15:55:58;34.00;42.10
8715;DHT22;4394;51.208;8.904;2022-08-04T15:58:52;34.00;42.70
8715;DHT22;4394;51.208;8.904;2022-08-04T16:01:41;34.20;42.50
8715;DHT22;4394;51.208;8.904;2022-08-04T16:08:09;34.90;42.90
8715;DHT22;4394;51.208;8.904;2022-08-04T16:10:58;35.10;42.10
8715;DHT22;4394;51.208;8.904;2022-08-04T16:14:07;34.90;42.20
8715;DHT22;4394;51.208;8.904;2022-08-04T16:16:55;34.60;42.40
8715;DHT22;4394;51.208;8.904;2022-08-04T16:20:07;34.40;43.20
8715;DHT22;4394;51.208;8.904;2022-08-04T16:23:07;34.10;43.50
8715;DHT22;4394;51.208;8.904;2022-08-04T16:26:41;34.00;44.20
8715;DHT22;4394;51.208;8.904;2022-08-04T16:29:42;33.90;45.70
8715;DHT22;4394;51.208;8.904;2022-08-04T16:32:39;33.80;46.00
8715;DHT22;4394;51.208;8.904;2022-08-04T16:35:28;33.70;45.90
8715;DHT22;4394;51.208;8.904;2022-08-04T16:38:16;33.60;46.50
8715;DHT22;4394;51.208;8.904;2022-08-04T16:41:05;33.50;46.70
8715;DHT22;4394;51.208;8.904;2022-08-04T16:44:29;33.40;47.20
8715;DHT22;4394;51.208;8.904;2022-08-04T16:48:01;33.40;47.50
8715;DHT22;4394;51.208;8.904;2022-08-04T16:50:59;33.20;47.50
8715;DHT22;4394;51.208;8.904;2022-08-04T16:53:51;33.20;47.80
8715;DHT22;4394;51.208;8.904;2022-08-04T16:56:51;33.30;49.00
8715;DHT22;4394;51.208;8.904;2022-08-04T16:59:50;33.70;49.40
8715;DHT22;4394;51.208;8.904;2022-08-04T17:02:39;33.90;49.10
8715;DHT22;4394;51.208;8.904;2022-08-04T17:05:29;34.20;49.00
8715;DHT22;4394;51.208;8.904;2022-08-04T17:08:27;34.40;48.50
8715;DHT22;4394;51.208;8.904;2022-08-04T17:11:17;34.60;48.50
8715;DHT22;4394;51.208;8.904;2022-08-04T17:14:05;34.60;49.20
8715;DHT22;4394;51.208;8.904;2022-08-04T17:16:58;34.40;49.60
8715;DHT22;4394;51.208;8.904;2022-08-04T17:19:51;34.20;49.80
8715;DHT22;4394;51.208;8.904;2022-08-04T17:22:41;33.90;51.30
8715;DHT22;4394;51.208;8.904;2022-08-04T17:25:30;33.60;52.10
8715;DHT22;4394;51.208;8.904;2022-08-04T17:28:39;33.30;52.70
8715;DHT22;4394;51.208;8.904;2022-08-04T17:31:35;33.10;53.60
8715;DHT22;4394;51.208;8.904;2022-08-04T17:34:26;33.50;53.70
8715;DHT22;4394;51.208;8.904;2022-08-04T17:37:15;33.60;53.60
8715;DHT22;4394;51.208;8.904;2022-08-04T17:40:25;33.80;53.60
8715;DHT22;4394;51.208;8.904;2022-08-04T17:43:14;33.90;53.60
8715;DHT22;4394;51.208;8.904;2022-08-04T17:46:25;33.80;53.30
8715;DHT22;4394;51.208;8.904;2022-08-04T17:49:20;33.60;54.00
8715;DHT22;4394;51.208;8.904;2022-08-04T17:52:18;33.30;54.70
8715;DHT22;4394;51.208;8.904;2022-08-04T17:55:38;33.10;55.60
8715;DHT22;4394;51.208;8.904;2022-08-04T17:58:26;32.80;56.50
8715;DHT22;4394;51.208;8.904;2022-08-04T18:01:15;32.40;56.80
8715;DHT22;4394;51.208;8.904;2022-08-04T18:04:38;32.20;57.50
8715;DHT22;4394;51.208;8.904;2022-08-04T18:07:47;31.80;58.10
8715;DHT22;4394;51.208;8.904;2022-08-04T18:10:57;31.50;59.10
8715;DHT22;4394;51.208;8.904;2022-08-04T18:13:52;31.30;60.10
8715;DHT22;4394;51.208;8.904;2022-08-04T18:16:43;31.30;61.10
8715;DHT22;4394;51.208;8.904;2022-08-04T18:19:31;31.20;62.50
8715;DHT22;4394;51.208;8.904;2022-08-04T18:22:34;31.10;63.90
8715;DHT22;4394;51.208;8.904;2022-08-04T18:25:22;31.00;64.40
8715;DHT22;4394;51.208;8.904;2022-08-04T18:28:33;30.80;65.40
8715;DHT22;4394;51.208;8.904;2022-08-04T18:31:22;30.60;66.90
8715;DHT22;4394;51.208;8.904;2022-08-04T18:34:13;30.50;67.60
8715;DHT22;4394;51.208;8.904;2022-08-04T18:37:07;30.40;68.80
8715;DHT22;4394;51.208;8.904;2022-08-04T18:40:16;30.30;70.00
8715;DHT22;4394;51.208;8.904;2022-08-04T18:43:17;30.10;71.30
8715;DHT22;4394;51.208;8.904;2022-08-04T18:46:27;29.90;72.70
8715;DHT22;4394;51.208;8.904;2022-08-04T18:49:16;29.80;74.10
8715;DHT22;4394;51.208;8.904;2022-08-04T18:52:24;29.70;74.60
8715;DHT22;4394;51.208;8.904;2022-08-04T18:55:14;29.70;75.50
8715;DHT22;4394;51.208;8.904;2022-08-04T18:58:23;29.60;75.40
8715;DHT22;4394;51.208;8.904;2022-08-04T19:01:13;29.50;76.70
8715;DHT22;4394;51.208;8.904;2022-08-04T19:04:03;29.40;77.20
8715;DHT22;4394;51.208;8.904;2022-08-04T19:07:11;29.20;76.90
8715;DHT22;4394;51.208;8.904;2022-08-04T19:10:20;29.00;77.50
8715;DHT22;4394;51.208;8.904;2022-08-04T19:13:12;28.80;78.50
8715;DHT22;4394;51.208;8.904;2022-08-04T19:16:11;28.80;80.30
8715;DHT22;4394;51.208;8.904;2022-08-04T19:19:08;28.60;87.90
8715;DHT22;4394;51.208;8.904;2022-08-04T19:21:58;28.40;90.30
8715;DHT22;4394;51.208;8.904;2022-08-04T19:24:55;28.20;91.90
8715;DHT22;4394;51.208;8.904;2022-08-04T19:27:43;27.90;93.70
8715;DHT22;4394;51.208;8.904;2022-08-04T19:30:40;27.80;95.60
8715;DHT22;4394;51.208;8.904;2022-08-04T19:33:29;27.50;96.80
8715;DHT22;4394;51.208;8.904;2022-08-04T19:36:38;27.40;97.60
8715;DHT22;4394;51.208;8.904;2022-08-04T19:39:32;27.30;98.40
8715;DHT22;4394;51.208;8.904;2022-08-04T19:42:26;27.20;99.20